createdAt,value
2018-03-14T00:00:41.335Z,1005.07
2018-03-14T00:02:34.315Z,1005.08
2018-03-14T00:03:34.378Z,1005.09
2018-03-14T00:05:27.368Z,1005.03
2018-03-14T00:06:27.406Z,1005.07
2018-03-14T00:08:20.392Z,1005.08
2018-03-14T00:09:20.453Z,1005.07
2018-03-14T00:11:13.460Z,1005.07
2018-03-14T00:12:13.496Z,1005.05
2018-03-14T00:14:06.509Z,1005.02
2018-03-14T00:15:06.536Z,1005.04
2018-03-14T00:16:59.523Z,1005.03
2018-03-14T00:17:59.584Z,1005.04
2018-03-14T00:19:52.585Z,1005.02
2018-03-14T00:20:52.629Z,1005.03
2018-03-14T00:22:46.118Z,1005.03
2018-03-14T00:23:46.174Z,1005.03
2018-03-14T00:25:39.180Z,1005.05
2018-03-14T00:26:39.216Z,1005.06
2018-03-14T00:28:32.201Z,1005.06
2018-03-14T00:29:32.255Z,1005.09
2018-03-14T00:31:25.255Z,1005.12
2018-03-14T00:32:25.294Z,1005.12
2018-03-14T00:34:18.277Z,1005.17
2018-03-14T00:35:18.335Z,1005.16
2018-03-14T00:37:11.383Z,1005.15
2018-03-14T00:38:11.379Z,1005.19
2018-03-14T00:40:04.371Z,1005.15
2018-03-14T00:41:04.430Z,1005.19
2018-03-14T00:42:57.433Z,1005.18
2018-03-14T00:43:57.478Z,1005.18
2018-03-14T00:45:50.460Z,1005.21
2018-03-14T00:46:50.514Z,1005.20
2018-03-14T00:48:43.542Z,1005.23
2018-03-14T00:49:43.560Z,1005.20
2018-03-14T00:51:36.559Z,1005.17
2018-03-14T00:52:36.617Z,1005.19
2018-03-14T00:54:29.609Z,1005.16
2018-03-14T00:55:29.631Z,1005.20
2018-03-14T00:57:22.645Z,1005.20
2018-03-14T00:58:22.663Z,1005.17
2018-03-14T01:00:15.648Z,1005.17
2018-03-14T01:01:15.705Z,1005.21
2018-03-14T01:03:08.710Z,1005.22
2018-03-14T01:04:08.747Z,1005.22
2018-03-14T01:06:01.726Z,1005.22
2018-03-14T01:07:01.783Z,1005.23
2018-03-14T01:08:54.791Z,1005.29
2018-03-14T01:09:54.829Z,1005.28
2018-03-14T01:11:47.806Z,1005.30
2018-03-14T01:12:47.863Z,1005.28
2018-03-14T01:14:40.867Z,1005.34
2018-03-14T01:15:40.906Z,1005.33
2018-03-14T01:17:33.907Z,1005.32
2018-03-14T01:18:33.946Z,1005.34
2018-03-14T01:20:26.943Z,1005.35
2018-03-14T01:21:26.980Z,1005.36
2018-03-14T01:23:20.506Z,1005.36
2018-03-14T01:24:20.530Z,1005.34
2018-03-14T01:26:13.515Z,1005.39
2018-03-14T01:27:13.575Z,1005.36
2018-03-14T01:29:06.591Z,1005.35
2018-03-14T01:30:06.605Z,1005.34
2018-03-14T01:31:59.585Z,1005.37
2018-03-14T01:32:59.640Z,1005.39
2018-03-14T01:34:52.638Z,1005.40
2018-03-14T01:35:52.677Z,1005.40
2018-03-14T01:37:45.659Z,1005.40
2018-03-14T01:38:45.711Z,1005.39
2018-03-14T01:40:38.708Z,1005.35
2018-03-14T01:41:38.747Z,1005.38
2018-03-14T01:43:31.724Z,1005.39
2018-03-14T01:44:31.782Z,1005.42
2018-03-14T01:46:24.795Z,1005.41
2018-03-14T01:47:24.833Z,1005.41
2018-03-14T01:49:17.813Z,1005.44
2018-03-14T01:50:17.871Z,1005.40
2018-03-14T01:52:10.872Z,1005.44
2018-03-14T01:53:10.910Z,1005.43
2018-03-14T01:55:03.931Z,1005.43
2018-03-14T01:56:03.950Z,1005.44
2018-03-14T01:57:56.927Z,1005.44
2018-03-14T01:58:56.985Z,1005.43
2018-03-14T02:00:50.016Z,1005.47
2018-03-14T02:01:50.019Z,1005.48
2018-03-14T02:03:43.003Z,1005.46
2018-03-14T02:04:43.061Z,1005.51
2018-03-14T02:06:36.059Z,1005.46
2018-03-14T02:07:36.096Z,1005.49
2018-03-14T02:09:29.076Z,1005.48
2018-03-14T02:10:29.129Z,1005.45
2018-03-14T02:12:22.126Z,1005.45
2018-03-14T02:13:22.162Z,1005.45
2018-03-14T02:15:15.159Z,1005.47
2018-03-14T02:16:15.198Z,1005.45
2018-03-14T02:18:08.194Z,1005.43
2018-03-14T02:19:08.231Z,1005.51
2018-03-14T02:21:01.231Z,1005.47
2018-03-14T02:22:01.266Z,1005.41
2018-03-14T02:23:54.244Z,1005.44
2018-03-14T02:24:54.301Z,1005.45
2018-03-14T02:26:47.320Z,1005.43
2018-03-14T02:27:47.335Z,1005.45
2018-03-14T02:29:40.323Z,1005.44
2018-03-14T02:30:40.397Z,1005.47
2018-03-14T02:32:33.379Z,1005.46
2018-03-14T02:33:33.416Z,1005.48
2018-03-14T02:35:26.400Z,1005.47
2018-03-14T02:36:26.457Z,1005.45
2018-03-14T02:38:19.455Z,1005.46
2018-03-14T02:39:19.492Z,1005.48
2018-03-14T02:41:12.470Z,1005.46
2018-03-14T02:42:12.525Z,1005.48
2018-03-14T02:44:05.525Z,1005.51
2018-03-14T02:45:05.580Z,1005.49
2018-03-14T02:46:58.538Z,1005.53
2018-03-14T02:47:58.595Z,1005.49
2018-03-14T02:49:51.600Z,1005.54
2018-03-14T02:50:51.637Z,1005.51
2018-03-14T02:52:44.635Z,1005.52
2018-03-14T02:53:44.672Z,1005.49
2018-03-14T02:55:37.655Z,1005.54
2018-03-14T02:56:37.714Z,1005.51
2018-03-14T02:58:30.712Z,1005.50
2018-03-14T02:59:30.756Z,1005.54
2018-03-14T03:01:23.737Z,1005.54
2018-03-14T03:02:23.794Z,1005.53
2018-03-14T03:04:16.810Z,1005.53
2018-03-14T03:05:16.847Z,1005.47
2018-03-14T03:07:09.837Z,1005.48
2018-03-14T03:08:09.893Z,1005.49
2018-03-14T03:10:02.905Z,1005.50
2018-03-14T03:11:02.941Z,1005.51
2018-03-14T03:12:55.946Z,1005.56
2018-03-14T03:13:55.989Z,1005.58
2018-03-14T03:15:48.988Z,1005.63
2018-03-14T03:16:49.025Z,1005.61
2018-03-14T03:18:42.009Z,1005.60
2018-03-14T03:19:42.061Z,1005.62
2018-03-14T03:21:35.082Z,1005.62
2018-03-14T03:22:35.107Z,1005.61
2018-03-14T03:24:28.116Z,1005.57
2018-03-14T03:25:28.154Z,1005.56
2018-03-14T03:27:21.146Z,1005.55
2018-03-14T03:28:21.195Z,1005.56
2018-03-14T03:30:14.196Z,1005.58
2018-03-14T03:31:14.235Z,1005.56
2018-03-14T03:33:07.217Z,1005.56
2018-03-14T03:34:07.270Z,1005.57
2018-03-14T03:36:00.269Z,1005.59
2018-03-14T03:37:00.302Z,1005.64
2018-03-14T03:38:53.286Z,1005.62
2018-03-14T03:39:53.342Z,1005.64
2018-03-14T03:41:46.346Z,1005.61
2018-03-14T03:42:46.383Z,1005.63
2018-03-14T03:44:39.387Z,1005.60
2018-03-14T03:45:39.417Z,1005.61
2018-03-14T03:47:32.409Z,1005.63
2018-03-14T03:48:32.466Z,1005.62
2018-03-14T03:50:25.473Z,1005.61
2018-03-14T03:51:25.511Z,1005.63
2018-03-14T03:53:18.503Z,1005.61
2018-03-14T03:54:18.560Z,1005.61
2018-03-14T03:56:11.558Z,1005.65
2018-03-14T03:57:11.594Z,1005.60
2018-03-14T03:59:04.583Z,1005.65
2018-03-14T04:00:04.642Z,1005.67
2018-03-14T04:01:57.640Z,1005.71
2018-03-14T04:02:57.679Z,1005.68
2018-03-14T04:04:50.655Z,1005.70
2018-03-14T04:05:50.710Z,1005.67
2018-03-14T04:07:44.223Z,1005.74
2018-03-14T04:08:44.260Z,1005.70
2018-03-14T04:10:37.246Z,1005.70
2018-03-14T04:11:37.304Z,1005.71
2018-03-14T04:13:30.309Z,1005.70
2018-03-14T04:14:30.345Z,1005.68
2018-03-14T04:16:23.328Z,1005.69
2018-03-14T04:17:23.384Z,1005.72
2018-03-14T04:19:16.393Z,1005.76
2018-03-14T04:20:16.424Z,1005.72
2018-03-14T04:22:09.438Z,1005.74
2018-03-14T04:23:09.464Z,1005.74
2018-03-14T04:25:02.448Z,1005.71
2018-03-14T04:26:02.552Z,1005.72
2018-03-14T04:27:55.506Z,1005.73
2018-03-14T04:28:55.544Z,1005.76
2018-03-14T04:30:48.521Z,1005.75
2018-03-14T04:31:48.578Z,1005.78
2018-03-14T04:33:41.573Z,1005.77
2018-03-14T04:34:41.608Z,1005.79
2018-03-14T04:36:34.588Z,1005.75
2018-03-14T04:37:34.649Z,1005.81
2018-03-14T04:39:27.647Z,1005.77
2018-03-14T04:40:27.678Z,1005.77
2018-03-14T04:42:20.653Z,1005.74
2018-03-14T04:43:20.740Z,1005.71
2018-03-14T04:45:13.712Z,1005.72
2018-03-14T04:46:13.747Z,1005.71
2018-03-14T04:48:06.743Z,1005.71
2018-03-14T04:49:06.780Z,1005.69
2018-03-14T04:50:59.767Z,1005.70
2018-03-14T04:51:59.821Z,1005.70
2018-03-14T04:53:52.839Z,1005.68
2018-03-14T04:54:52.854Z,1005.68
2018-03-14T04:56:45.834Z,1005.72
2018-03-14T04:57:45.892Z,1005.74
2018-03-14T04:59:38.886Z,1005.78
2018-03-14T05:00:38.924Z,1005.79
2018-03-14T05:02:31.902Z,1005.79
2018-03-14T05:03:31.958Z,1005.79
2018-03-14T05:05:24.966Z,1005.76
2018-03-14T05:06:25.001Z,1005.77
2018-03-14T05:08:18.495Z,1005.77
2018-03-14T05:09:18.549Z,1005.76
2018-03-14T05:11:11.548Z,1005.77
2018-03-14T05:12:11.590Z,1005.77
2018-03-14T05:14:04.569Z,1005.75
2018-03-14T05:15:04.620Z,1005.80
2018-03-14T05:16:57.617Z,1005.79
2018-03-14T05:17:57.653Z,1005.81
2018-03-14T05:19:50.636Z,1005.83
2018-03-14T05:20:50.692Z,1005.85
2018-03-14T05:22:43.691Z,1005.85
2018-03-14T05:23:43.727Z,1005.87
2018-03-14T05:25:36.720Z,1005.86
2018-03-14T05:26:36.773Z,1005.89
2018-03-14T05:28:29.773Z,1005.92
2018-03-14T05:29:29.811Z,1005.89
2018-03-14T05:31:22.821Z,1005.93
2018-03-14T05:32:22.844Z,1005.92
2018-03-14T05:34:15.834Z,1005.91
2018-03-14T05:35:15.889Z,1005.90
2018-03-14T05:37:08.889Z,1005.87
2018-03-14T05:38:08.927Z,1005.86
2018-03-14T05:40:01.909Z,1005.87
2018-03-14T05:41:01.960Z,1005.87
2018-03-14T05:42:54.969Z,1005.86
2018-03-14T05:43:55.007Z,1005.88
2018-03-14T05:45:47.984Z,1005.88
2018-03-14T05:46:48.040Z,1005.91
2018-03-14T05:48:41.557Z,1005.91
2018-03-14T05:49:41.591Z,1005.90
2018-03-14T05:51:34.566Z,1005.92
2018-03-14T05:52:34.624Z,1005.90
2018-03-14T05:54:27.620Z,1005.93
2018-03-14T05:55:27.656Z,1005.96
2018-03-14T05:57:20.639Z,1005.96
2018-03-14T05:58:20.697Z,1006.01
2018-03-14T06:00:13.696Z,1006.06
2018-03-14T06:01:13.734Z,1006.04
2018-03-14T06:03:06.744Z,1006.03
2018-03-14T06:04:06.766Z,1006.08
2018-03-14T06:05:59.742Z,1006.10
2018-03-14T06:06:59.799Z,1006.10
2018-03-14T06:08:52.794Z,1006.08
2018-03-14T06:09:52.830Z,1006.05
2018-03-14T06:11:45.808Z,1006.06
2018-03-14T06:12:45.864Z,1006.04
2018-03-14T06:14:38.868Z,1006.05
2018-03-14T06:15:38.905Z,1006.11
2018-03-14T06:17:31.892Z,1006.07
2018-03-14T06:18:31.949Z,1006.07
2018-03-14T06:20:24.945Z,1006.05
2018-03-14T06:21:24.982Z,1006.09
2018-03-14T06:23:17.960Z,1006.07
2018-03-14T06:24:18.017Z,1006.11
2018-03-14T06:26:11.015Z,1006.12
2018-03-14T06:27:11.051Z,1006.11
2018-03-14T06:29:04.061Z,1006.16
2018-03-14T06:30:04.095Z,1006.20
2018-03-14T06:31:57.076Z,1006.19
2018-03-14T06:32:57.128Z,1006.18
2018-03-14T06:34:50.124Z,1006.18
2018-03-14T06:35:50.159Z,1006.17
2018-03-14T06:37:43.139Z,1006.23
2018-03-14T06:38:43.193Z,1006.24
2018-03-14T06:40:36.194Z,1006.27
2018-03-14T06:41:36.228Z,1006.28
2018-03-14T06:43:29.212Z,1006.29
2018-03-14T06:44:29.268Z,1006.31
2018-03-14T06:46:22.268Z,1006.37
2018-03-14T06:47:22.304Z,1006.33
2018-03-14T06:49:15.282Z,1006.40
2018-03-14T06:50:15.339Z,1006.40
2018-03-14T06:52:08.342Z,1006.39
2018-03-14T06:53:08.380Z,1006.42
2018-03-14T06:55:01.388Z,1006.40
2018-03-14T06:56:01.412Z,1006.43
2018-03-14T06:57:54.392Z,1006.44
2018-03-14T06:58:54.448Z,1006.44
2018-03-14T07:00:47.445Z,1006.44
2018-03-14T07:01:47.482Z,1006.44
2018-03-14T07:03:40.458Z,1006.43
2018-03-14T07:04:40.514Z,1006.43
2018-03-14T07:06:33.513Z,1006.46
2018-03-14T07:07:33.552Z,1006.43
2018-03-14T07:09:26.534Z,1006.50
2018-03-14T07:10:26.585Z,1006.54
2018-03-14T07:12:19.583Z,1006.55
2018-03-14T07:13:19.620Z,1006.58
2018-03-14T07:15:12.597Z,1006.53
2018-03-14T07:16:12.654Z,1006.55
2018-03-14T07:18:05.651Z,1006.58
2018-03-14T07:19:05.690Z,1006.58
2018-03-14T07:20:59.208Z,1006.57
2018-03-14T07:21:59.237Z,1006.56
2018-03-14T07:23:52.229Z,1006.58
2018-03-14T07:24:52.283Z,1006.58
2018-03-14T07:26:45.293Z,1006.63
2018-03-14T07:27:45.329Z,1006.66
2018-03-14T07:29:38.349Z,1006.70
2018-03-14T07:30:38.371Z,1006.71
2018-03-14T07:32:31.371Z,1006.76
2018-03-14T07:33:31.407Z,1006.74
2018-03-14T07:35:24.395Z,1006.77
2018-03-14T07:36:24.501Z,1006.77
2018-03-14T07:38:17.463Z,1006.77
2018-03-14T07:39:17.502Z,1006.80
2018-03-14T07:41:10.485Z,1006.78
2018-03-14T07:42:10.544Z,1006.76
2018-03-14T07:44:03.544Z,1006.79
2018-03-14T07:45:03.582Z,1006.79
2018-03-14T07:46:56.571Z,1006.84
2018-03-14T07:47:56.630Z,1006.86
2018-03-14T07:49:49.627Z,1006.89
2018-03-14T07:50:49.663Z,1006.88
2018-03-14T07:52:42.717Z,1006.90
2018-03-14T07:53:42.702Z,1006.92
2018-03-14T07:55:35.682Z,1006.92
2018-03-14T07:56:35.739Z,1006.94
2018-03-14T07:58:28.748Z,1006.95
2018-03-14T07:59:28.788Z,1006.97
2018-03-14T08:01:21.768Z,1006.96
2018-03-14T08:02:21.827Z,1006.97
2018-03-14T08:04:14.838Z,1006.97
2018-03-14T08:05:14.877Z,1006.98
2018-03-14T08:07:07.868Z,1006.95
2018-03-14T08:08:07.925Z,1006.94
2018-03-14T08:10:00.931Z,1006.90
2018-03-14T08:11:00.970Z,1006.91
2018-03-14T08:12:53.949Z,1006.89
2018-03-14T08:13:54.138Z,1006.88
2018-03-14T08:15:47.018Z,1006.88
2018-03-14T08:16:47.056Z,1006.87
2018-03-14T08:18:40.035Z,1006.84
2018-03-14T08:19:40.098Z,1006.87
2018-03-14T08:21:33.610Z,1006.89
2018-03-14T08:22:33.648Z,1006.91
2018-03-14T08:24:26.667Z,1006.88
2018-03-14T08:25:26.700Z,1006.87
2018-03-14T08:27:19.681Z,1006.88
2018-03-14T08:28:19.739Z,1006.89
2018-03-14T08:30:12.740Z,1006.85
2018-03-14T08:31:12.779Z,1006.86
2018-03-14T08:33:05.767Z,1006.84
2018-03-14T08:34:05.827Z,1006.86
2018-03-14T08:35:58.829Z,1006.87
2018-03-14T08:36:58.867Z,1006.90
2018-03-14T08:38:51.852Z,1006.89
2018-03-14T08:39:51.913Z,1006.87
2018-03-14T08:41:44.922Z,1006.88
2018-03-14T08:42:44.961Z,1006.92
2018-03-14T08:44:37.946Z,1006.87
2018-03-14T08:45:38.005Z,1006.88
2018-03-14T08:47:31.012Z,1006.88
2018-03-14T08:48:31.050Z,1006.89
2018-03-14T08:50:24.094Z,1006.88
2018-03-14T08:51:24.095Z,1006.96
2018-03-14T08:53:17.102Z,1006.99
2018-03-14T08:54:17.193Z,1006.96
2018-03-14T08:56:10.145Z,1007.02
2018-03-14T08:57:10.184Z,1007.04
2018-03-14T08:59:03.168Z,1007.05
2018-03-14T09:00:03.227Z,1007.02
2018-03-14T09:01:56.230Z,1007.02
2018-03-14T09:02:56.266Z,1007.02
2018-03-14T09:04:49.262Z,1007.01
2018-03-14T09:05:49.321Z,1007.03
2018-03-14T09:07:42.325Z,1007.03
2018-03-14T09:08:42.364Z,1006.99
2018-03-14T09:10:35.351Z,1007.02
2018-03-14T09:11:35.412Z,1007.02
2018-03-14T09:13:28.414Z,1006.95
2018-03-14T09:14:28.453Z,1006.97
2018-03-14T09:16:21.446Z,1006.99
2018-03-14T09:17:21.505Z,1007.01
2018-03-14T09:19:14.515Z,1007.03
2018-03-14T09:20:14.554Z,1007.04
2018-03-14T09:22:07.576Z,1006.99
2018-03-14T09:23:07.594Z,1007.00
2018-03-14T09:25:00.587Z,1006.97
2018-03-14T09:26:00.644Z,1006.96
2018-03-14T09:27:53.646Z,1006.98
2018-03-14T09:28:53.684Z,1006.99
2018-03-14T09:30:46.675Z,1007.03
2018-03-14T09:31:46.805Z,1007.03
2018-03-14T09:33:39.732Z,1007.04
2018-03-14T09:34:39.771Z,1007.04
2018-03-14T09:36:32.761Z,1007.07
2018-03-14T09:37:32.821Z,1007.04
2018-03-14T09:39:25.834Z,1007.16
2018-03-14T09:40:25.871Z,1007.13
2018-03-14T09:42:18.865Z,1007.16
2018-03-14T09:43:18.926Z,1007.19
2018-03-14T09:45:11.939Z,1007.13
2018-03-14T09:46:11.969Z,1007.14
2018-03-14T09:48:05.017Z,1007.12
2018-03-14T09:49:05.044Z,1007.15
2018-03-14T09:50:58.034Z,1007.15
2018-03-14T09:51:58.094Z,1007.12
2018-03-14T09:53:51.099Z,1007.11
2018-03-14T09:54:51.141Z,1007.12
2018-03-14T09:56:44.123Z,1007.10
2018-03-14T09:57:44.184Z,1007.07
2018-03-14T09:59:37.187Z,1007.12
2018-03-14T10:00:37.226Z,1007.11
2018-03-14T10:02:30.220Z,1007.13
2018-03-14T10:03:30.282Z,1007.10
2018-03-14T10:05:23.294Z,1007.12
2018-03-14T10:06:23.334Z,1007.09
2018-03-14T10:08:16.334Z,1007.07
2018-03-14T10:09:16.391Z,1007.06
2018-03-14T10:11:09.400Z,1007.02
2018-03-14T10:12:09.438Z,1007.08
2018-03-14T10:14:02.457Z,1007.06
2018-03-14T10:15:02.494Z,1007.06
2018-03-14T10:16:55.488Z,1007.04
2018-03-14T10:17:55.548Z,1007.02
2018-03-14T10:19:48.557Z,1007.03
2018-03-14T10:20:48.597Z,1007.04
2018-03-14T10:22:41.591Z,1007.03
2018-03-14T10:23:41.650Z,1007.03
2018-03-14T10:25:34.730Z,1007.06
2018-03-14T10:26:34.694Z,1007.08
2018-03-14T10:28:27.685Z,1007.07
2018-03-14T10:29:27.744Z,1007.05
2018-03-14T10:31:20.758Z,1007.04
2018-03-14T10:32:20.798Z,1007.05
2018-03-14T10:34:13.782Z,1007.04
2018-03-14T10:35:13.846Z,1007.05
2018-03-14T10:37:06.847Z,1007.07
2018-03-14T10:38:06.888Z,1007.09
2018-03-14T10:39:59.885Z,1007.09
2018-03-14T10:40:59.941Z,1007.11
2018-03-14T10:42:52.956Z,1007.07
2018-03-14T10:43:52.994Z,1007.09
2018-03-14T10:45:45.980Z,1007.08
2018-03-14T10:46:46.036Z,1007.08
2018-03-14T10:48:39.049Z,1007.08
2018-03-14T10:49:39.109Z,1007.09
2018-03-14T10:51:32.096Z,1007.10
2018-03-14T10:52:32.138Z,1007.09
2018-03-14T10:54:25.122Z,1007.11
2018-03-14T10:55:25.180Z,1007.09
2018-03-14T10:57:18.183Z,1007.09
2018-03-14T10:58:18.223Z,1007.05
2018-03-14T11:00:11.215Z,1007.04
2018-03-14T11:01:11.276Z,1007.05
2018-03-14T11:03:04.284Z,1007.01
2018-03-14T11:04:04.324Z,1006.99
2018-03-14T11:05:57.315Z,1007.04
2018-03-14T11:06:57.375Z,1007.05
2018-03-14T11:08:50.378Z,1007.08
2018-03-14T11:09:50.417Z,1007.10
2018-03-14T11:11:43.398Z,1007.03
2018-03-14T11:12:43.459Z,1007.04
2018-03-14T11:14:36.467Z,1006.99
2018-03-14T11:15:36.554Z,1006.96
2018-03-14T11:17:29.499Z,1006.97
2018-03-14T11:18:29.560Z,1006.96
2018-03-14T11:20:22.615Z,1006.96
2018-03-14T11:21:22.606Z,1006.98
2018-03-14T11:23:15.618Z,1006.91
2018-03-14T11:24:15.658Z,1006.88
2018-03-14T11:26:08.641Z,1006.87
2018-03-14T11:27:08.702Z,1006.89
2018-03-14T11:29:01.705Z,1006.86
2018-03-14T11:30:01.744Z,1006.87
2018-03-14T11:31:54.736Z,1006.89
2018-03-14T11:32:54.796Z,1006.90
2018-03-14T11:34:47.805Z,1006.87
2018-03-14T11:35:47.844Z,1006.91
2018-03-14T11:37:40.834Z,1006.87
2018-03-14T11:38:40.896Z,1006.85
2018-03-14T11:40:33.910Z,1006.86
2018-03-14T11:41:33.952Z,1006.85
2018-03-14T11:43:26.966Z,1006.89
2018-03-14T11:44:27.008Z,1006.90
2018-03-14T11:46:19.993Z,1006.86
2018-03-14T11:47:20.046Z,1006.87
2018-03-14T11:49:13.057Z,1006.82
2018-03-14T11:50:13.100Z,1006.84
2018-03-14T11:52:06.092Z,1006.79
2018-03-14T11:53:06.156Z,1006.80
2018-03-14T11:54:59.166Z,1006.70
2018-03-14T11:55:59.210Z,1006.70
2018-03-14T11:57:52.199Z,1006.73
2018-03-14T11:58:52.261Z,1006.70
2018-03-14T12:00:45.275Z,1006.70
2018-03-14T12:01:45.316Z,1006.70
2018-03-14T12:03:38.301Z,1006.69
2018-03-14T12:04:38.362Z,1006.64
2018-03-14T12:06:31.370Z,1006.62
2018-03-14T12:07:31.411Z,1006.64
2018-03-14T12:09:24.426Z,1006.53
2018-03-14T12:10:24.464Z,1006.55
2018-03-14T12:12:17.489Z,1006.50
2018-03-14T12:13:17.513Z,1006.48
2018-03-14T12:15:10.519Z,1006.39
2018-03-14T12:16:10.560Z,1006.35
2018-03-14T12:18:03.549Z,1006.34
2018-03-14T12:19:03.607Z,1006.36
2018-03-14T12:20:56.678Z,1006.35
2018-03-14T12:21:56.660Z,1006.39
2018-03-14T12:23:49.649Z,1006.29
2018-03-14T12:24:49.710Z,1006.35
2018-03-14T12:26:42.714Z,1006.33
2018-03-14T12:27:42.755Z,1006.39
2018-03-14T12:29:35.746Z,1006.39
2018-03-14T12:30:35.808Z,1006.38
2018-03-14T12:32:28.821Z,1006.36
2018-03-14T12:33:28.888Z,1006.36
2018-03-14T12:35:21.859Z,1006.31
2018-03-14T12:36:21.922Z,1006.25
2018-03-14T12:38:14.928Z,1006.19
2018-03-14T12:39:14.968Z,1006.15
2018-03-14T12:41:07.995Z,1006.07
2018-03-14T12:42:08.024Z,1006.06
2018-03-14T12:44:01.018Z,1006.05
2018-03-14T12:45:01.081Z,1005.99
2018-03-14T12:46:54.095Z,1005.92
2018-03-14T12:47:54.135Z,1005.95
2018-03-14T12:49:47.125Z,1005.92
2018-03-14T12:50:47.184Z,1005.89
2018-03-14T12:52:40.197Z,1005.84
2018-03-14T12:53:40.237Z,1005.85
2018-03-14T12:55:33.226Z,1005.81
2018-03-14T12:56:33.284Z,1005.75
2018-03-14T12:58:26.295Z,1005.79
2018-03-14T12:59:26.344Z,1005.74
2018-03-14T13:01:19.324Z,1005.76
2018-03-14T13:02:19.385Z,1005.73
2018-03-14T13:04:12.404Z,1005.70
2018-03-14T13:05:12.440Z,1005.72
2018-03-14T13:07:05.459Z,1005.67
2018-03-14T13:08:05.488Z,1005.65
2018-03-14T13:09:58.480Z,1005.60
2018-03-14T13:10:58.530Z,1005.57
2018-03-14T13:12:51.536Z,1005.53
2018-03-14T13:13:51.574Z,1005.53
2018-03-14T13:15:44.558Z,1005.43
2018-03-14T13:16:44.619Z,1005.49
2018-03-14T13:18:37.624Z,1005.36
2018-03-14T13:19:37.664Z,1005.36
2018-03-14T13:21:31.163Z,1005.28
2018-03-14T13:22:31.219Z,1005.30
2018-03-14T13:24:24.232Z,1005.23
2018-03-14T13:25:24.273Z,1005.23
2018-03-14T13:27:17.263Z,1005.20
2018-03-14T13:28:17.324Z,1005.19
2018-03-14T13:30:10.330Z,1005.21
2018-03-14T13:31:10.380Z,1005.20
2018-03-14T13:33:03.356Z,1005.13
2018-03-14T13:34:03.418Z,1005.12
2018-03-14T13:35:56.414Z,1005.05
2018-03-14T13:36:56.453Z,1005.01
2018-03-14T13:38:49.450Z,1005.04
2018-03-14T13:39:49.505Z,1004.95
2018-03-14T13:41:42.508Z,1004.89
2018-03-14T13:42:42.543Z,1004.84
2018-03-14T13:44:35.549Z,1004.89
2018-03-14T13:45:35.587Z,1004.90
2018-03-14T13:47:28.588Z,1004.88
2018-03-14T13:48:28.632Z,1004.83
2018-03-14T13:50:21.657Z,1004.80
2018-03-14T13:51:21.688Z,1004.75
2018-03-14T13:53:14.704Z,1004.74
2018-03-14T13:54:14.765Z,1004.65
2018-03-14T13:56:07.765Z,1004.66
2018-03-14T13:57:07.804Z,1004.67
2018-03-14T13:59:00.851Z,1004.63
2018-03-14T14:00:00.856Z,1004.63
2018-03-14T14:01:53.858Z,1004.55
2018-03-14T14:02:53.894Z,1004.52
2018-03-14T14:04:46.878Z,1004.48
2018-03-14T14:05:46.934Z,1004.48
2018-03-14T14:07:39.949Z,1004.41
2018-03-14T14:08:39.986Z,1004.42
2018-03-14T14:10:32.993Z,1004.46
2018-03-14T14:11:33.034Z,1004.39
2018-03-14T14:13:26.051Z,1004.39
2018-03-14T14:14:26.107Z,1004.36
2018-03-14T14:16:19.123Z,1004.35
2018-03-14T14:17:19.159Z,1004.33
2018-03-14T14:19:12.156Z,1004.36
2018-03-14T14:20:12.218Z,1004.38
2018-03-14T14:22:05.744Z,1004.32
2018-03-14T14:23:05.782Z,1004.34
2018-03-14T14:24:58.799Z,1004.35
2018-03-14T14:25:58.830Z,1004.33
2018-03-14T14:27:51.841Z,1004.29
2018-03-14T14:28:51.882Z,1004.26
2018-03-14T14:30:44.871Z,1004.15
2018-03-14T14:31:44.931Z,1004.11
2018-03-14T14:33:37.937Z,1004.04
2018-03-14T14:34:37.978Z,1004.07
2018-03-14T14:36:30.993Z,1004.05
2018-03-14T14:37:31.040Z,1004.07
2018-03-14T14:39:24.023Z,1004.11
2018-03-14T14:40:24.084Z,1004.04
2018-03-14T14:42:17.090Z,1004.02
2018-03-14T14:43:17.129Z,1003.94
2018-03-14T14:45:10.129Z,1003.85
2018-03-14T14:46:10.188Z,1003.86
2018-03-14T14:48:03.228Z,1003.82
2018-03-14T14:49:03.238Z,1003.84
2018-03-14T14:50:56.229Z,1003.84
2018-03-14T14:51:56.287Z,1003.80
2018-03-14T14:53:49.804Z,1003.78
2018-03-14T14:54:49.844Z,1003.79
2018-03-14T14:56:42.830Z,1003.74
2018-03-14T14:57:42.890Z,1003.76
2018-03-14T14:59:35.902Z,1003.71
2018-03-14T15:00:35.944Z,1003.65
2018-03-14T15:02:28.924Z,1003.63
2018-03-14T15:03:28.991Z,1003.61
2018-03-14T15:05:21.999Z,1003.58
2018-03-14T15:06:22.089Z,1003.54
2018-03-14T15:08:15.041Z,1003.52
2018-03-14T15:09:15.079Z,1003.51
2018-03-14T15:11:08.069Z,1003.49
2018-03-14T15:12:08.129Z,1003.51
2018-03-14T15:14:01.130Z,1003.49
2018-03-14T15:15:01.169Z,1003.46
2018-03-14T15:16:54.161Z,1003.52
2018-03-14T15:17:54.219Z,1003.54
2018-03-14T15:19:47.736Z,1003.47
2018-03-14T15:20:47.260Z,1003.46
2018-03-14T15:22:40.243Z,1003.48
2018-03-14T15:23:40.301Z,1003.45
2018-03-14T15:25:33.347Z,1003.39
2018-03-14T15:26:33.343Z,1003.39
2018-03-14T15:28:26.325Z,1003.32
2018-03-14T15:29:26.384Z,1003.32
2018-03-14T15:31:19.384Z,1003.30
2018-03-14T15:32:19.426Z,1003.27
2018-03-14T15:34:12.467Z,1003.27
2018-03-14T15:35:12.471Z,1003.27
2018-03-14T15:37:05.458Z,1003.27
2018-03-14T15:38:05.513Z,1003.26
2018-03-14T15:39:58.521Z,1003.27
2018-03-14T15:40:58.555Z,1003.28
2018-03-14T15:42:51.539Z,1003.22
2018-03-14T15:43:51.598Z,1003.25
2018-03-14T15:45:44.596Z,1003.22
2018-03-14T15:46:44.634Z,1003.19
2018-03-14T15:48:37.623Z,1003.25
2018-03-14T15:49:37.683Z,1003.22
2018-03-14T15:51:30.689Z,1003.18
2018-03-14T15:52:30.729Z,1003.21
2018-03-14T15:54:23.716Z,1003.22
2018-03-14T15:55:23.774Z,1003.23
2018-03-14T15:57:16.790Z,1003.21
2018-03-14T15:58:16.819Z,1003.16
2018-03-14T16:00:09.822Z,1003.14
2018-03-14T16:01:09.861Z,1003.15
2018-03-14T16:03:02.842Z,1003.13
2018-03-14T16:04:02.900Z,1003.12
2018-03-14T16:05:55.912Z,1003.16
2018-03-14T16:06:55.948Z,1003.15
2018-03-14T16:08:48.930Z,1003.14
2018-03-14T16:09:48.996Z,1003.17
2018-03-14T16:11:41.992Z,1003.20
2018-03-14T16:12:42.030Z,1003.18
2018-03-14T16:14:35.015Z,1003.15
2018-03-14T16:15:35.074Z,1003.13
2018-03-14T16:17:28.075Z,1003.18
2018-03-14T16:18:28.114Z,1003.16
2018-03-14T16:20:21.098Z,1003.19
2018-03-14T16:21:21.177Z,1003.20
2018-03-14T16:23:14.157Z,1003.25
2018-03-14T16:24:14.196Z,1003.26
2018-03-14T16:26:07.201Z,1003.23
2018-03-14T16:27:07.241Z,1003.28
2018-03-14T16:29:00.222Z,1003.28
2018-03-14T16:30:00.284Z,1003.29
2018-03-14T16:31:53.294Z,1003.29
2018-03-14T16:32:53.318Z,1003.25
2018-03-14T16:34:46.298Z,1003.34
2018-03-14T16:35:46.357Z,1003.34
2018-03-14T16:37:39.359Z,1003.35
2018-03-14T16:38:39.407Z,1003.35
2018-03-14T16:40:32.376Z,1003.33
2018-03-14T16:41:32.434Z,1003.36
2018-03-14T16:43:25.433Z,1003.37
2018-03-14T16:44:25.494Z,1003.39
2018-03-14T16:46:18.459Z,1003.39
2018-03-14T16:47:18.511Z,1003.39
2018-03-14T16:49:11.512Z,1003.37
2018-03-14T16:50:11.576Z,1003.35
2018-03-14T16:52:04.558Z,1003.37
2018-03-14T16:53:04.634Z,1003.37
2018-03-14T16:54:57.616Z,1003.38
2018-03-14T16:55:57.670Z,1003.37
2018-03-14T16:57:50.692Z,1003.35
2018-03-14T16:58:50.680Z,1003.36
2018-03-14T17:00:43.671Z,1003.37
2018-03-14T17:01:43.717Z,1003.42
2018-03-14T17:03:36.714Z,1003.40
2018-03-14T17:04:36.754Z,1003.41
2018-03-14T17:06:29.730Z,1003.39
2018-03-14T17:07:29.791Z,1003.38
2018-03-14T17:09:22.795Z,1003.43
2018-03-14T17:10:22.835Z,1003.43
2018-03-14T17:12:15.813Z,1003.38
2018-03-14T17:13:15.872Z,1003.39
2018-03-14T17:15:08.877Z,1003.42
2018-03-14T17:16:08.917Z,1003.40
2018-03-14T17:18:01.909Z,1003.38
2018-03-14T17:19:01.947Z,1003.39
2018-03-14T17:20:55.428Z,1003.30
2018-03-14T17:21:55.487Z,1003.34
2018-03-14T17:23:48.493Z,1003.29
2018-03-14T17:24:48.556Z,1003.34
2018-03-14T17:26:41.518Z,1003.31